Time;durP1;ratioP1;P1;durP2;ratioP2;P2;SDS_P1;SDS_P2;PMS_P1;PMS_P2;Temp;Humidity;BMP_temperature;BMP_pressure;BME280_temperature;BME280_humidity;BME280_pressure;Samples;Min_cycle;Max_cycle;Signal;HPM_P1;HPM_P2
2021/08/20 06:11:39;;;;;;;33.67;21.33;;;;;;;;;;2617988;54;20325;-89
2021/08/20 06:14:12;;;;;;;32.80;21.83;;;;;;;;;;2617394;54;20034;-91
2021/08/20 06:16:41;;;;;;;36.85;22.50;;;;;;;;;;2620022;38;20411;-89
2021/08/20 06:19:07;;;;;;;32.55;20.70;;;;;;;;;;2620684;46;20050;-91
2021/08/20 06:21:33;;;;;;;35.92;22.23;;;;;;;;;;2623413;54;20026;-89
2021/08/20 06:23:59;;;;;;;35.55;23.65;;;;;;;;;;2619923;38;20440;-91
2021/08/20 06:26:25;;;;;;;29.38;20.55;;;;;;;;;;2622582;54;20109;-91
2021/08/20 06:28:52;;;;;;;34.95;22.23;;;;;;;;;;2620879;54;20046;-89
2021/08/20 06:31:18;;;;;;;30.60;21.17;;;;;;;;;;2621533;54;20046;-90
2021/08/20 06:33:44;;;;;;;35.92;22.85;;;;;;;;;;2621874;46;20061;-87
2021/08/20 06:36:10;;;;;;;29.95;22.50;;;;;;;;;;2619929;38;20475;-84
2021/08/20 06:38:36;;;;;;;32.83;21.30;;;;;;;;;;2620903;47;20022;-87
2021/08/20 06:41:03;;;;;;;37.25;23.63;;;;;;;;;;2621942;46;20082;-85
2021/08/20 06:43:29;;;;;;;31.08;22.60;;;;;;;;;;2620311;54;20083;-86
2021/08/20 06:45:55;;;;;;;34.30;23.73;;;;;;;;;;2617793;46;20065;-84
2021/08/20 06:48:21;;;;;;;38.88;23.40;;;;;;;;;;2617344;46;20022;-82
2021/08/20 06:50:48;;;;;;;38.58;25.73;;;;;;;;;;2618448;46;20030;-84
2021/08/20 06:53:14;;;;;;;33.35;23.55;;;;;;;;;;2617015;47;20053;-85
2021/08/20 06:55:40;;;;;;;36.90;23.38;;;;;;;;;;2617933;47;20069;-85
2021/08/20 06:58:06;;;;;;;35.80;23.90;;;;;;;;;;2617941;47;20121;-83
2021/08/20 07:00:32;;;;;;;36.40;24.42;;;;;;;;;;2617560;54;20038;-83
2021/08/20 07:02:58;;;;;;;32.10;23.42;;;;;;;;;;2616890;54;20042;-85
2021/08/20 07:05:25;;;;;;;39.00;22.92;;;;;;;;;;2617250;46;20038;-87
2021/08/20 07:07:51;;;;;;;34.17;24.52;;;;;;;;;;2618711;46;20034;-85
2021/08/20 07:10:18;;;;;;;34.35;23.08;;;;;;;;;;2618442;47;20022;-86
2021/08/20 07:12:44;;;;;;;33.97;23.77;;;;;;;;;;2620588;38;20436;-85
2021/08/20 07:15:13;;;;;;;37.35;23.85;;;;;;;;;;2622225;54;20041;-87
2021/08/20 07:17:41;;;;;;;39.78;25.35;;;;;;;;;;2623825;47;20038;-85
2021/08/20 07:20:07;;;;;;;41.28;25.63;;;;;;;;;;2623584;47;21093;-88
2021/08/20 07:22:35;;;;;;;33.75;24.48;;;;;;;;;;2616313;54;20038;-86
2021/08/20 07:25:01;;;;;;;37.10;25.55;;;;;;;;;;2620186;47;20524;-86
2021/08/20 07:27:27;;;;;;;44.15;25.60;;;;;;;;;;2617242;47;20038;-86
2021/08/20 07:29:53;;;;;;;42.67;25.42;;;;;;;;;;2616053;47;20972;-86
2021/08/20 07:32:19;;;;;;;36.42;24.77;;;;;;;;;;2614752;46;20037;-84
2021/08/20 07:34:45;;;;;;;34.92;23.92;;;;;;;;;;2615115;47;20032;-90
2021/08/20 07:37:12;;;;;;;35.78;23.38;;;;;;;;;;2615880;54;20086;-89
2021/08/20 07:39:38;;;;;;;37.45;23.50;;;;;;;;;;2614743;46;20146;-84
2021/08/20 07:42:05;;;;;;;33.47;22.73;;;;;;;;;;2613967;39;20440;-88
2021/08/20 07:44:31;;;;;;;41.22;25.38;;;;;;;;;;2613860;46;20166;-87
2021/08/20 07:46:57;;;;;;;39.10;22.92;;;;;;;;;;2614616;47;20049;-86
2021/08/20 07:49:23;;;;;;;33.67;22.75;;;;;;;;;;2613702;54;20042;-86
2021/08/20 07:51:50;;;;;;;39.53;22.27;;;;;;;;;;2613985;46;20042;-88
2021/08/20 07:54:16;;;;;;;33.05;21.05;;;;;;;;;;2613111;46;20138;-89
2021/08/20 07:56:42;;;;;;;34.30;22.25;;;;;;;;;;2614243;54;20034;-87
2021/08/20 07:59:08;;;;;;;32.17;22.42;;;;;;;;;;2614786;46;20150;-85
2021/08/20 08:01:34;;;;;;;31.80;20.70;;;;;;;;;;2612976;47;20540;-90
2021/08/20 08:04:00;;;;;;;34.25;20.42;;;;;;;;;;2615491;46;20495;-86
2021/08/20 08:06:27;;;;;;;29.15;21.35;;;;;;;;;;2614345;39;20399;-85
2021/08/20 08:08:53;;;;;;;31.27;21.88;;;;;;;;;;2613910;46;20140;-90
2021/08/20 08:11:20;;;;;;;29.83;18.30;;;;;;;;;;2613731;46;20041;-81
2021/08/20 08:13:46;;;;;;;33.47;20.75;;;;;;;;;;2613513;54;20037;-82
2021/08/20 08:16:15;;;;;;;21.75;17.10;;;;;;;;;;2613341;54;20129;-83
2021/08/20 08:18:41;;;;;;;31.05;20.73;;;;;;;;;;2612605;47;20150;-83
2021/08/20 08:21:07;;;;;;;23.10;16.08;;;;;;;;;;2613207;47;20156;-84
2021/08/20 08:23:33;;;;;;;21.50;14.73;;;;;;;;;;2612548;47;20043;-82
2021/08/20 08:25:59;;;;;;;26.50;13.43;;;;;;;;;;2613385;47;20034;-83
2021/08/20 08:28:25;;;;;;;33.05;14.60;;;;;;;;;;2613692;54;20030;-83
2021/08/20 08:30:51;;;;;;;25.90;16.83;;;;;;;;;;2613395;47;20022;-83
2021/08/20 08:33:18;;;;;;;25.05;15.43;;;;;;;;;;2613722;39;20435;-83
2021/08/20 08:35:45;;;;;;;24.05;16.42;;;;;;;;;;2613073;54;20023;-83
2021/08/20 08:38:12;;;;;;;20.55;14.23;;;;;;;;;;2612875;47;20027;-83
2021/08/20 08:40:39;;;;;;;25.55;17.75;;;;;;;;;;2613248;47;20087;-83
2021/08/20 08:43:06;;;;;;;21.58;14.95;;;;;;;;;;2613874;47;20037;-84
2021/08/20 08:45:32;;;;;;;27.98;13.55;;;;;;;;;;2614823;54;20031;-84
2021/08/20 08:47:59;;;;;;;28.13;13.25;;;;;;;;;;2615930;54;20069;-87
2021/08/20 08:50:25;;;;;;;22.45;14.13;;;;;;;;;;2611912;47;20037;-86
2021/08/20 08:52:51;;;;;;;25.63;14.23;;;;;;;;;;2611410;47;20022;-86
2021/08/20 08:55:17;;;;;;;17.45;13.77;;;;;;;;;;2613250;46;20039;-86
2021/08/20 08:57:44;;;;;;;17.98;10.98;;;;;;;;;;2612871;47;20031;-86
2021/08/20 09:00:10;;;;;;;31.55;14.70;;;;;;;;;;2611511;54;20023;-86
2021/08/20 09:02:36;;;;;;;22.25;13.43;;;;;;;;;;2612054;54;20054;-88
2021/08/20 09:05:05;;;;;;;22.60;11.50;;;;;;;;;;2612017;54;20537;-88
2021/08/20 09:07:34;;;;;;;20.95;11.93;;;;;;;;;;2611855;47;21398;-86
2021/08/20 09:10:09;;;;;;;18.38;9.43;;;;;;;;;;2611172;47;20034;-87
2021/08/20 09:12:35;;;;;;;18.70;10.80;;;;;;;;;;2611196;54;20034;-86
2021/08/20 09:15:01;;;;;;;14.13;9.18;;;;;;;;;;2611171;54;20023;-87
2021/08/20 09:17:34;;;;;;;15.45;10.48;;;22.70;99.90;;;;;;2611852;47;20152;-87
2021/08/20 09:20:33;;;;;;;18.83;10.43;;;;;;;;;;2610584;47;20031;-86
2021/08/20 09:23:00;;;;;;;16.60;9.73;;;;;;;;;;2609664;47;20030;-88
2021/08/20 09:25:38;;;;;;;15.52;9.02;;;;;;;;;;2611160;46;20141;-87
2021/08/20 09:28:14;;;;;;;18.25;10.45;;;;;;;;;;2611301;54;20026;-87
2021/08/20 09:30:42;;;;;;;19.00;11.18;;;22.30;99.90;;;;;;2611341;47;20031;-87
2021/08/20 09:33:12;;;;;;;23.52;11.73;;;;;;;;;;2611481;54;20038;-87
2021/08/20 09:35:39;;;;;;;17.70;11.32;;;20.80;99.90;;;;;;2610871;47;20069;-88
2021/08/20 09:38:06;;;;;;;16.38;10.93;;;;;;;;;;2610520;46;20046;-87
2021/08/20 09:40:32;;;;;;;21.23;11.73;;;;;;;;;;2610383;54;20154;-87
2021/08/20 09:43:12;;;;;;;17.17;10.32;;;;;;;;;;2611420;47;20098;-86
2021/08/20 09:45:39;;;;;;;19.13;12.10;;;;;;;;;;2610815;47;20031;-87
2021/08/20 09:48:05;;;;;;;19.85;11.15;;;;;;;;;;2611193;54;20711;-88
2021/08/20 09:50:41;;;;;;;20.17;10.20;;;;;;;;;;2610187;54;20038;-88
2021/08/20 09:53:12;;;;;;;17.67;10.60;;;;;;;;;;2612658;47;20045;-87
2021/08/20 09:55:39;;;;;;;16.77;9.82;;;;;;;;;;2610413;47;20564;-88
2021/08/20 09:58:10;;;;;;;19.00;8.85;;;21.70;99.90;;;;;;2611698;47;20039;-88
2021/08/20 10:00:36;;;;;;;15.95;8.68;;;;;;;;;;2611384;46;20050;-88
2021/08/20 10:03:04;;;;;;;14.52;8.13;;;;;;;;;;2610955;54;20042;-88
2021/08/20 10:05:30;;;;;;;19.55;9.05;;;;;;;;;;2611188;47;20129;-87
2021/08/20 10:07:58;;;;;;;13.70;8.25;;;;;;;;;;2611429;54;20049;-89
2021/08/20 10:10:24;;;;;;;13.77;8.55;;;;;;;;;;2609831;47;20034;-88
2021/08/20 10:12:51;;;;;;;17.13;9.93;;;;;;;;;;2612085;47;20038;-84
2021/08/20 10:15:17;;;;;;;25.23;8.63;;;;;;;;;;2612929;47;20022;-87
2021/08/20 10:17:45;;;;;;;16.67;9.02;;;;;;;;;;2613210;47;20061;-89
2021/08/20 10:20:12;;;;;;;17.40;8.88;;;;;;;;;;2613870;47;20043;-88
2021/08/20 10:22:38;;;;;;;11.80;7.72;;;;;;;;;;2613134;47;20042;-88
2021/08/20 10:25:07;;;;;;;14.00;8.07;;;;;;;;;;2612835;47;20026;-90
2021/08/20 10:27:33;;;;;;;17.60;8.85;;;;;;;;;;2614008;54;20632;-87
2021/08/20 10:30:00;;;;;;;15.18;9.30;;;;;;;;;;2613271;47;20138;-90
2021/08/20 10:32:26;;;;;;;16.38;8.18;;;;;;;;;;2613288;47;20034;-88
2021/08/20 10:34:52;;;;;;;16.30;8.15;;;;;;;;;;2611935;54;20077;-90
2021/08/20 10:37:25;;;;;;;18.23;8.57;;;;;;;;;;2613024;54;20264;-89
2021/08/20 10:39:52;;;;;;;13.90;8.02;;;;;;;;;;2614280;47;20060;-89
2021/08/20 10:42:23;;;;;;;15.35;8.25;;;;;;;;;;2613458;47;20035;-87
2021/08/20 10:44:51;;;;;;;12.82;8.23;;;;;;;;;;2613228;47;20121;-86
2021/08/20 10:47:23;;;;;;;18.85;7.65;;;;;;;;;;2615224;47;20038;-92
2021/08/20 10:49:49;;;;;;;13.30;7.23;;;;;;;;;;2628659;47;20565;-92
2021/08/20 10:52:24;;;;;;;13.30;7.07;;;;;;;;;;2628594;54;20018;-93
2021/08/20 10:54:50;;;;;;;14.50;7.38;;;;;;;;;;2628389;47;20007;-93
2021/08/20 10:57:35;;;;;;;17.35;10.48;;;;;;;;;;2628505;54;20030;-94
2021/08/20 11:00:01;;;;;;;19.42;7.60;;;;;;;;;;2628271;46;20087;-93
2021/08/20 11:02:31;;;;;;;13.88;7.22;;;;;;;;;;2631235;54;20019;-93
2021/08/20 11:05:01;;;;;;;12.02;6.70;;;;;;;;;;2631489;46;20014;-89
2021/08/20 11:07:42;;;;;;;9.38;5.57;;;;;;;;;;2612250;47;20046;-83
2021/08/20 11:10:08;;;;;;;13.60;6.78;;;;;;;;;;2608808;47;20053;-83
2021/08/20 11:12:44;;;;;;;15.57;6.50;;;;;;;;;;2611251;39;20546;-83
2021/08/20 11:15:23;;;;;;;16.83;6.32;;;;;;;;;;2610422;54;20034;-82
2021/08/20 11:18:07;;;;;;;11.98;7.13;;;;;;;;;;2609758;46;20185;-82
2021/08/20 11:20:39;;;;;;;11.07;6.95;;;;;;;;;;2609269;46;20049;-82
2021/08/20 11:23:08;;;;;;;13.63;7.20;;;;;;;;;;2609974;47;20038;-82
2021/08/20 11:25:56;;;;;;;12.55;6.53;;;22.50;99.90;;;;;;2610330;54;20134;-83
2021/08/20 11:28:32;;;;;;;12.48;6.38;;;;;;;;;;2610754;54;20118;-83
2021/08/20 11:30:58;;;;;;;11.82;6.50;;;;;;;;;;2609781;54;20523;-83
2021/08/20 11:33:29;;;;;;;11.27;6.00;;;;;;;;;;2610211;47;20923;-85
2021/08/20 11:35:59;;;;;;;14.75;6.97;;;;;;;;;;2611134;46;20073;-83
2021/08/20 11:38:28;;;;;;;14.13;6.82;;;;;;;;;;2609755;54;20551;-83
2021/08/20 11:40:55;;;;;;;17.23;8.15;;;;;;;;;;2610146;54;20523;-85
2021/08/20 11:43:22;;;;;;;15.82;7.22;;;;;;;;;;2610977;47;20030;-83
2021/08/20 11:45:53;;;;;;;13.70;6.15;;;;;;;;;;2610631;54;20121;-83
2021/08/20 11:48:20;;;;;;;15.38;6.38;;;;;;;;;;2610968;47;20030;-83
2021/08/20 11:50:47;;;;;;;18.15;6.75;;;;;;;;;;2610417;54;20030;-83
2021/08/20 11:53:20;;;;;;;16.75;7.88;;;;;;;;;;2609999;46;20049;-82
2021/08/20 11:55:46;;;;;;;10.52;5.82;;;;;;;;;;2610185;54;20023;-80
2021/08/20 11:58:25;;;;;;;11.23;6.38;;;;;;;;;;2610339;47;20031;-81
2021/08/20 12:00:51;;;;;;;8.70;5.78;;;;;;;;;;2610474;54;20046;-81
2021/08/20 12:03:17;;;;;;;11.45;6.82;;;;;;;;;;2610425;54;20030;-82
2021/08/20 12:05:43;;;;;;;12.57;7.10;;;;;;;;;;2610154;47;20435;-83
2021/08/20 12:08:19;;;;;;;15.48;7.68;;;23.80;99.90;;;;;;2610202;54;20154;-81
2021/08/20 12:10:46;;;;;;;14.98;8.35;;;;;;;;;;2610561;39;20446;-82
2021/08/20 12:13:13;;;;;;;15.02;6.45;;;;;;;;;;2610433;54;20030;-82
2021/08/20 12:15:40;;;;;;;15.30;8.90;;;;;;;;;;2610318;39;20400;-82
2021/08/20 12:18:18;;;;;;;17.30;7.93;;;;;;;;;;2608291;46;20158;-82
2021/08/20 12:20:44;;;;;;;16.80;8.70;;;;;;;;;;2610045;54;20030;-80
2021/08/20 12:23:10;;;;;;;8.20;5.85;;;;;;;;;;2609786;39;20471;-81
2021/08/20 12:25:39;;;;;;;18.27;6.32;;;;;;;;;;2610819;47;20041;-82
2021/08/20 12:28:10;;;;;;;11.80;5.90;;;;;;;;;;2610302;47;20042;-81
2021/08/20 12:30:37;;;;;;;16.58;6.63;;;;;;;;;;2610575;54;20031;-82
2021/08/20 12:33:04;;;;;;;8.05;5.68;;;;;;;;;;2611679;39;20446;-83
2021/08/20 12:35:30;;;;;;;13.35;7.18;;;;;;;;;;2612133;47;20042;-82
2021/08/20 12:38:15;;;;;;;12.15;7.13;;;;;;;;;;2610428;54;20083;-82
2021/08/20 12:40:51;;;;;;;10.63;6.68;;;;;;;;;;2610385;39;20049;-83
2021/08/20 12:43:47;;;;;;;11.70;5.57;;;;;;;;;;2611259;54;20054;-84
2021/08/20 12:46:15;;;;;;;9.43;6.57;;;;;;;;;;2613024;47;20040;-85
2021/08/20 12:48:43;;;;;;;10.40;5.70;;;;;;;;;;2617677;54;20034;-85
2021/08/20 12:51:09;;;;;;;10.85;5.75;;;;;;;;;;2613047;54;20053;-88
2021/08/20 12:53:37;;;;;;;9.82;5.60;;;;;;;;;;2612274;54;20038;-86
2021/08/20 12:56:03;;;;;;;11.40;5.65;;;;;;;;;;2614912;54;20138;-83
2021/08/20 12:58:30;;;;;;;10.98;5.85;;;;;;;;;;2616680;54;20019;-89
2021/08/20 13:00:58;;;;;;;12.10;5.95;;;;;;;;;;2623277;54;20054;-89
2021/08/20 13:03:24;;;;;;;6.88;5.10;;;;;;;;;;2619063;47;20022;-88
2021/08/20 13:06:01;;;;;;;16.08;5.85;;;;;;;;;;2614893;46;20130;-89
2021/08/20 13:08:28;;;;;;;8.90;6.15;;;;;;;;;;2617035;54;20038;-89
2021/08/20 13:10:55;;;;;;;7.82;4.60;;;;;;;;;;2614254;47;20030;-85
2021/08/20 13:13:22;;;;;;;7.40;4.28;;;;;;;;;;2609872;54;20070;-81
2021/08/20 13:15:48;;;;;;;12.20;4.78;;;;;;;;;;2610240;47;20535;-82
2021/08/20 13:18:17;;;;;;;13.93;5.63;;;;;;;;;;2609728;47;20118;-81
2021/08/20 13:20:51;;;;;;;8.27;5.07;;;24.80;99.90;;;;;;2609920;47;20125;-82
2021/08/20 13:23:18;;;;;;;9.85;5.30;;;;;;;;;;2609458;39;20473;-83
2021/08/20 13:25:44;;;;;;;11.13;4.57;;;;;;;;;;2610304;39;20434;-80
2021/08/20 13:28:10;;;;;;;8.82;4.65;;;;;;;;;;2609829;54;20054;-80
2021/08/20 13:30:37;;;;;;;9.55;5.45;;;;;;;;;;2609863;54;20527;-80
2021/08/20 13:33:04;;;;;;;11.52;5.82;;;;;;;;;;2609882;47;20895;-83
2021/08/20 13:35:30;;;;;;;6.68;5.15;;;;;;;;;;2609712;51;20035;-80
2021/08/20 13:37:56;;;;;;;12.75;5.50;;;;;;;;;;2607721;47;20022;-82
2021/08/20 13:40:24;;;;;;;12.27;6.18;;;;;;;;;;2610108;54;20065;-81
2021/08/20 13:42:50;;;;;;;13.88;7.63;;;;;;;;;;2609456;54;20042;-83
2021/08/20 13:45:16;;;;;;;7.70;4.78;;;;;;;;;;2610562;39;20404;-83
2021/08/20 13:47:42;;;;;;;9.30;6.05;;;;;;;;;;2608983;54;20026;-82
2021/08/20 13:50:08;;;;;;;9.23;5.07;;;;;;;;;;2610592;47;20034;-82
2021/08/20 13:52:34;;;;;;;12.43;6.40;;;;;;;;;;2607499;47;20663;-84
2021/08/20 13:55:02;;;;;;;10.80;5.00;;;;;;;;;;2610475;54;20038;-83
2021/08/20 13:57:29;;;;;;;9.38;4.35;;;;;;;;;;2609526;54;20069;-81
2021/08/20 13:59:57;;;;;;;7.53;4.68;;;;;;;;;;2610216;47;20022;-81
2021/08/20 14:02:23;;;;;;;8.32;4.53;;;;;;;;;;2609470;39;20365;-82
2021/08/20 14:04:49;;;;;;;12.85;5.28;;;;;;;;;;2609875;47;20065;-82
2021/08/20 14:07:15;;;;;;;10.55;5.15;;;;;;;;;;2608443;54;20041;-83
2021/08/20 14:09:41;;;;;;;8.20;5.05;;;;;;;;;;2610492;47;20038;-84
2021/08/20 14:12:07;;;;;;;8.98;4.47;;;;;;;;;;2609830;54;20078;-85
2021/08/20 14:14:33;;;;;;;5.72;4.63;;;;;;;;;;2609914;47;20078;-85
2021/08/20 14:16:59;;;;;;;6.68;4.80;;;;;;;;;;2609845;54;20030;-83
2021/08/20 14:19:28;;;;;;;7.78;3.78;;;;;;;;;;2608686;47;20063;-80
2021/08/20 14:21:54;;;;;;;7.60;3.70;;;;;;;;;;2608678;54;20018;-83
2021/08/20 14:24:20;;;;;;;7.03;3.00;;;;;;;;;;2608404;54;20026;-83
2021/08/20 14:26:47;;;;;;;8.18;3.20;;;;;;;;;;2607986;47;20042;-79
2021/08/20 14:29:13;;;;;;;7.13;3.38;;;;;;;;;;2609637;39;20593;-79
2021/08/20 14:31:39;;;;;;;10.32;3.20;;;;;;;;;;2608054;54;20030;-80
2021/08/20 14:34:05;;;;;;;7.88;3.60;;;;;;;;;;2608488;47;20565;-80
2021/08/20 14:36:31;;;;;;;7.90;5.25;;;;;;;;;;2609789;54;20042;-81
2021/08/20 14:38:57;;;;;;;6.90;4.10;;;;;;;;;;2610217;47;20069;-80
2021/08/20 14:41:23;;;;;;;7.82;4.32;;;;;;;;;;2609032;47;20034;-79
2021/08/20 14:43:50;;;;;;;11.43;5.53;;;;;;;;;;2610435;51;20030;-80
2021/08/20 14:46:16;;;;;;;5.85;3.22;;;;;;;;;;2611037;46;20041;-79
2021/08/20 14:48:42;;;;;;;10.77;3.72;;;;;;;;;;2611880;47;20030;-80
2021/08/20 14:51:10;;;;;;;7.47;3.50;;;;;;;;;;2611487;54;20062;-78
2021/08/20 14:53:37;;;;;;;7.85;3.55;;;;;;;;;;2611198;54;20031;-80
2021/08/20 14:56:03;;;;;;;6.57;3.38;;;;;;;;;;2610270;47;20474;-80
2021/08/20 14:58:29;;;;;;;10.50;3.50;;;;;;;;;;2610869;47;20070;-80
2021/08/20 15:00:56;;;;;;;7.10;3.30;;;;;;;;;;2611584;46;20042;-79
2021/08/20 15:03:22;;;;;;;10.23;5.18;;;;;;;;;;2611107;47;20975;-80
2021/08/20 15:05:48;;;;;;;14.73;9.05;;;;;;;;;;2610207;54;20469;-81
2021/08/20 15:08:15;;;;;;;16.48;10.25;;;;;;;;;;2611817;46;20054;-82
2021/08/20 15:10:41;;;;;;;13.90;10.60;;;;;;;;;;2612249;54;20038;-81
2021/08/20 15:13:09;;;;;;;16.23;11.32;;;;;;;;;;2613581;46;20048;-84
2021/08/20 15:15:35;;;;;;;18.70;12.85;;;;;;;;;;2613564;47;20042;-84
2021/08/20 15:18:03;;;;;;;15.95;11.02;;;;;;;;;;2613641;54;20027;-83
2021/08/20 15:20:31;;;;;;;16.02;10.35;;;;;;;;;;2613826;46;20046;-84
2021/08/20 15:22:57;;;;;;;17.70;9.13;;;;;;;;;;2613167;54;20019;-83
2021/08/20 15:25:24;;;;;;;19.20;9.60;;;;;;;;;;2612251;47;20665;-84
2021/08/20 15:27:50;;;;;;;10.45;8.10;;;;;;;;;;2612865;54;20125;-84
2021/08/20 15:30:16;;;;;;;15.13;8.88;;;;;;;;;;2612491;46;20046;-84
2021/08/20 15:32:43;;;;;;;12.75;9.25;;;;;;;;;;2609864;47;20569;-86
2021/08/20 15:35:09;;;;;;;11.93;10.70;;;;;;;;;;2609623;46;20035;-81
2021/08/20 15:37:36;;;;;;;16.67;9.65;;;;;;;;;;2610535;47;20042;-78
2021/08/20 15:40:03;;;;;;;13.75;8.80;;;;;;;;;;2610843;47;20026;-78
2021/08/20 15:42:29;;;;;;;10.90;6.97;;;22.80;99.90;;;;;;2610182;54;20526;-81
2021/08/20 15:44:58;;;;;;;10.48;9.05;;;;;;;;;;2611605;47;20029;-81
2021/08/20 15:47:24;;;;;;;12.55;9.10;;;;;;;;;;2611270;54;20022;-81
2021/08/20 15:49:51;;;;;;;14.57;8.90;;;;;;;;;;2612129;47;20022;-78
2021/08/20 15:52:17;;;;;;;11.02;8.40;;;;;;;;;;2610603;47;20058;-81
2021/08/20 15:54:44;;;;;;;12.40;8.27;;;;;;;;;;2611596;54;20031;-79
2021/08/20 15:57:10;;;;;;;10.27;8.38;;;;;;;;;;2612627;54;20037;-80
2021/08/20 15:59:36;;;;;;;11.52;8.43;;;;;;;;;;2611973;54;20038;-80
2021/08/20 16:02:02;;;;;;;14.60;8.95;;;22.00;99.90;;;;;;2613464;39;20391;-82
2021/08/20 16:04:28;;;;;;;10.63;9.38;;;;;;;;;;2612965;54;20042;-81
2021/08/20 16:06:54;;;;;;;12.50;9.50;;;;;;;;;;2612167;54;20039;-81
2021/08/20 16:09:20;;;;;;;13.13;10.65;;;;;;;;;;2612282;46;20042;-81
2021/08/20 16:11:46;;;;;;;16.15;9.25;;;;;;;;;;2610904;54;20523;-79
2021/08/20 16:14:13;;;;;;;11.98;9.43;;;;;;;;;;2612545;54;20031;-81
2021/08/20 16:16:39;;;;;;;13.77;10.60;;;;;;;;;;2613697;47;20034;-79
2021/08/20 16:19:10;;;;;;;12.90;10.25;;;;;;;;;;2613305;47;20486;-83
2021/08/20 16:21:39;;;;;;;13.73;10.68;;;;;;;;;;2612878;54;20038;-82
2021/08/20 16:24:06;;;;;;;11.02;7.90;;;;;;;;;;2614274;46;20042;-82
2021/08/20 16:26:35;;;;;;;11.00;8.68;;;;;;;;;;2612431;47;20037;-80
2021/08/20 16:29:01;;;;;;;9.13;8.18;;;;;;;;;;2613547;46;20034;-81
2021/08/20 16:31:27;;;;;;;10.13;9.13;;;;;;;;;;2614330;47;20066;-81
2021/08/20 16:33:54;;;;;;;13.02;9.50;;;;;;;;;;2613373;47;20031;-81
2021/08/20 16:36:20;;;;;;;12.98;9.80;;;;;;;;;;2612463;54;20034;-79
2021/08/20 16:38:47;;;;;;;10.70;9.60;;;;;;;;;;2614279;47;20038;-83
2021/08/20 16:41:13;;;;;;;11.60;10.02;;;;;;;;;;2614600;39;20382;-82
2021/08/20 16:43:39;;;;;;;17.13;10.13;;;;;;;;;;2613025;54;20034;-82
2021/08/20 16:46:05;;;;;;;9.70;7.85;;;;;;;;;;2614022;39;20433;-82
2021/08/20 16:48:31;;;;;;;9.85;7.75;;;;;;;;;;2612857;47;20031;-81
2021/08/20 16:50:57;;;;;;;12.10;8.63;;;;;;;;;;2611510;47;20034;-83
2021/08/20 16:53:23;;;;;;;15.35;8.60;;;;;;;;;;2612149;47;20042;-82
2021/08/20 16:55:49;;;;;;;8.38;7.15;;;;;;;;;;2612273;39;20401;-82
2021/08/20 16:58:15;;;;;;;11.55;7.70;;;;;;;;;;2612289;54;20034;-83
2021/08/20 17:00:41;;;;;;;6.35;5.75;;;;;;;;;;2611935;47;20031;-82
2021/08/20 17:03:07;;;;;;;10.02;6.80;;;;;;;;;;2612829;46;20043;-81
2021/08/20 17:05:33;;;;;;;8.57;6.68;;;;;;;;;;2611515;47;20053;-83
2021/08/20 17:08:00;;;;;;;7.80;7.00;;;;;;;;;;2610245;54;20030;-82
2021/08/20 17:10:26;;;;;;;8.27;6.55;;;;;;;;;;2610761;47;20054;-81
2021/08/20 17:12:52;;;;;;;11.55;7.32;;;;;;;;;;2612152;47;20035;-83
2021/08/20 17:15:19;;;;;;;8.38;7.35;;;;;;;;;;2612443;54;20129;-81
2021/08/20 17:17:45;;;;;;;10.57;6.95;;;;;;;;;;2611591;47;20030;-83
2021/08/20 17:20:12;;;;;;;8.63;7.50;;;;;;;;;;2613279;46;20042;-83
2021/08/20 17:22:41;;;;;;;12.70;7.55;;;;;;;;;;2612951;54;20034;-82
2021/08/20 17:25:08;;;;;;;9.60;7.28;;;;;;;;;;2613858;54;20038;-83
2021/08/20 17:27:34;;;;;;;10.02;7.03;;;;;;;;;;2613775;39;20404;-84
2021/08/20 17:30:00;;;;;;;8.02;6.35;;;;;;;;;;2612407;47;20030;-82
2021/08/20 17:32:27;;;;;;;10.10;8.18;;;;;;;;;;2613351;39;20455;-82
2021/08/20 17:34:53;;;;;;;8.45;7.00;;;;;;;;;;2612579;46;20066;-82
2021/08/20 17:37:19;;;;;;;9.43;8.13;;;;;;;;;;2611699;53;20029;-82
2021/08/20 17:39:48;;;;;;;10.20;7.65;;;;;;;;;;2612176;47;20041;-83
2021/08/20 17:42:14;;;;;;;10.80;7.88;;;;;;;;;;2610762;47;20177;-81
2021/08/20 17:44:41;;;;;;;6.63;5.53;;;;;;;;;;2611035;54;20041;-83
2021/08/20 17:47:07;;;;;;;8.57;6.63;;;;;;;;;;2613129;46;20034;-82
2021/08/20 17:49:33;;;;;;;9.90;6.78;;;;;;;;;;2612460;47;20055;-84
2021/08/20 17:51:59;;;;;;;10.65;7.63;;;;;;;;;;2612766;46;20049;-83
2021/08/20 17:54:25;;;;;;;8.82;6.93;;;;;;;;;;2611501;51;20034;-83
2021/08/20 17:56:52;;;;;;;9.25;7.50;;;;;;;;;;2611791;47;20192;-83
2021/08/20 17:59:18;;;;;;;7.72;6.90;;;;;;;;;;2612364;54;20042;-83
2021/08/20 18:01:44;;;;;;;8.05;6.60;;;;;;;;;;2612266;51;20026;-82
2021/08/20 18:04:10;;;;;;;9.52;6.88;;;;;;;;;;2613437;54;20596;-85
2021/08/20 18:06:36;;;;;;;11.05;6.80;;;;;;;;;;2612242;51;20054;-83
2021/08/20 18:09:04;;;;;;;9.27;7.00;;;;;;;;;;2612240;54;20039;-83
2021/08/20 18:11:31;;;;;;;13.23;7.00;;;;;;;;;;2612486;47;20042;-82
2021/08/20 18:13:57;;;;;;;14.57;7.20;;;;;;;;;;2611758;54;20146;-81
2021/08/20 18:16:23;;;;;;;7.93;6.93;;;;;;;;;;2612639;47;20126;-84
2021/08/20 18:18:49;;;;;;;10.65;7.13;;;;;;;;;;2612937;47;20022;-81
2021/08/20 18:21:15;;;;;;;8.68;6.88;;;;;;;;;;2612297;47;20591;-83
2021/08/20 18:23:43;;;;;;;11.18;7.38;;;;;;;;;;2612494;47;20042;-82
2021/08/20 18:26:11;;;;;;;10.30;8.18;;;20.10;99.90;;;;;;2612516;54;20042;-82
2021/08/20 18:28:38;;;;;;;10.82;6.55;;;;;;;;;;2613470;47;20035;-83
2021/08/20 18:31:04;;;;;;;10.52;7.15;;;;;;;;;;2617350;47;20031;-79
2021/08/20 18:33:38;;;;;;;7.90;6.93;;;;;;;;;;2614413;54;20030;-80
2021/08/20 18:36:04;;;;;;;11.07;6.13;;;;;;;;;;2613005;54;20038;-80
2021/08/20 18:38:30;;;;;;;9.35;6.80;;;;;;;;;;2612990;47;20038;-81
2021/08/20 18:40:56;;;;;;;8.02;7.15;;;;;;;;;;2613436;47;20034;-83
2021/08/20 18:43:23;;;;;;;12.95;8.88;;;;;;;;;;2612849;47;20065;-80
2021/08/20 18:45:49;;;;;;;12.20;7.35;;;;;;;;;;2612212;47;20038;-81
2021/08/20 18:48:15;;;;;;;11.30;7.10;;;;;;;;;;2612219;54;20034;-81
2021/08/20 18:50:43;;;;;;;8.98;6.72;;;19.40;99.90;;;;;;2612152;54;20030;-82
2021/08/20 18:53:09;;;;;;;10.80;6.95;;;;;;;;;;2612017;39;20407;-81
2021/08/20 18:55:35;;;;;;;8.88;6.63;;;;;;;;;;2612657;54;20082;-82
2021/08/20 18:58:02;;;;;;;11.98;7.35;;;19.40;99.90;;;;;;2612082;47;20038;-78
2021/08/20 19:00:28;;;;;;;10.90;7.63;;;;;;;;;;2611674;47;20139;-80
2021/08/20 19:02:54;;;;;;;12.60;7.75;;;;;;;;;;2611785;54;20139;-80
2021/08/20 19:05:20;;;;;;;11.77;7.38;;;;;;;;;;2611678;47;20034;-82
2021/08/20 19:07:46;;;;;;;12.60;9.60;;;;;;;;;;2611445;54;20031;-81
2021/08/20 19:10:12;;;;;;;11.88;8.02;;;;;;;;;;2612732;47;20049;-81
2021/08/20 19:12:39;;;;;;;11.27;8.48;;;;;;;;;;2612784;39;20408;-82
2021/08/20 19:15:07;;;;;;;12.63;9.15;;;;;;;;;;2611427;54;20031;-80
2021/08/20 19:17:33;;;;;;;10.32;8.07;;;;;;;;;;2611558;54;20049;-79
2021/08/20 19:19:59;;;;;;;12.23;9.68;;;;;;;;;;2612114;39;20245;-79
2021/08/20 19:22:27;;;;;;;10.50;9.40;;;;;;;;;;2611993;47;20023;-78
2021/08/20 19:24:55;;;;;;;14.27;9.68;;;;;;;;;;2612028;31;20531;-79
2021/08/20 19:27:22;;;;;;;10.32;8.57;;;;;;;;;;2611517;47;20553;-81
2021/08/20 19:29:49;;;;;;;12.23;8.80;;;;;;;;;;2611981;47;20029;-80
2021/08/20 19:32:15;;;;;;;11.73;7.82;;;;;;;;;;2612640;54;20038;-81
2021/08/20 19:34:41;;;;;;;13.43;9.50;;;;;;;;;;2611954;54;20053;-82
2021/08/20 19:37:08;;;;;;;11.60;9.40;;;;;;;;;;2613560;47;20030;-80
2021/08/20 19:39:34;;;;;;;12.30;9.02;;;;;;;;;;2613178;31;20622;-82
2021/08/20 19:42:00;;;;;;;10.73;8.82;;;;;;;;;;2613940;47;20650;-90
2021/08/20 19:44:26;;;;;;;9.80;7.63;;;;;;;;;;2618030;47;20031;-90
2021/08/20 19:46:52;;;;;;;10.32;8.75;;;;;;;;;;2618478;46;20031;-89
2021/08/20 19:49:18;;;;;;;10.77;8.63;;;;;;;;;;2617976;54;20073;-92
2021/08/20 19:51:44;;;;;;;9.23;8.32;;;;;;;;;;2616962;47;20030;-88
2021/08/20 19:54:10;;;;;;;12.20;9.43;;;;;;;;;;2618777;54;20038;-91
2021/08/20 19:56:37;;;;;;;10.85;8.82;;;;;;;;;;2618948;54;20546;-91
2021/08/20 19:59:03;;;;;;;9.95;8.02;;;;;;;;;;2618174;54;20042;-92
2021/08/20 20:01:29;;;;;;;12.15;9.25;;;;;;;;;;2617726;47;20034;-90
2021/08/20 20:03:56;;;;;;;9.15;7.55;;;;;;;;;;2618182;54;20011;-90
2021/08/20 20:06:22;;;;;;;14.63;9.32;;;;;;;;;;2619140;54;20138;-91
2021/08/20 20:08:48;;;;;;;10.75;9.15;;;;;;;;;;2619440;54;20030;-89
2021/08/20 20:11:14;;;;;;;9.48;8.57;;;;;;;;;;2618264;47;20145;-92
2021/08/20 20:13:41;;;;;;;10.82;9.18;;;;;;;;;;2619639;54;20034;-91
2021/08/20 20:16:07;;;;;;;13.35;8.70;;;;;;;;;;2621596;47;20031;-91
2021/08/20 20:18:34;;;;;;;9.38;8.48;;;;;;;;;;2620825;54;20041;-91
2021/08/20 20:21:00;;;;;;;12.10;8.55;;;;;;;;;;2619230;46;20049;-93
2021/08/20 20:23:26;;;;;;;12.27;8.73;;;;;;;;;;2619784;47;20558;-90
2021/08/20 20:25:54;;;;;;;11.00;8.98;;;;;;;;;;2619342;47;20074;-92
2021/08/20 20:28:20;;;;;;;11.45;8.65;;;;;;;;;;2623694;39;20638;-91
2021/08/20 20:30:46;;;;;;;9.70;8.40;;;;;;;;;;2620210;47;20081;-90
2021/08/20 20:33:13;;;;;;;10.77;9.07;;;;;;;;;;2619209;39;20307;-94
2021/08/20 20:35:39;;;;;;;12.82;9.80;;;;;;;;;;2618592;54;20030;-89